Durand, Michigan
Current Conditions -  °F | °C
As of 6:13 PM on Tuesday 25 Nov 2014 (Local Time) from KRNP Reporting Station
Overcast Overcast  
Wind Chill: 21°   Ceiling: 2800
Heat Index: 31°   Visibility: 10mi
Dew Point: 22°   Wind: 12mph
Humidity: 70%   Direction: 250°WSW
Pressure: 30.11"   Gusts: NA
Location:  42.91°N, 83.98°W
Report Text: KRNP 252313Z AUTO 25010KT 10SM OVC028 M01/M05 A3011 RMK AO2 T10071055
Loading
Personal Weather Stations






























Interactive Weather Map New forecast layout! Learn more

10-Day Weather Forecast

Advertisements
Track Severe Weather on mobile